sensor_id;sensor_type;location;lat;lon;timestamp;P1;durP1;ratioP1;P2;durP2;ratioP2
7398;SDS011;3740;50.700;7.184;2023-06-22T00:01:27;6.28;;;5.78;;
7398;SDS011;3740;50.700;7.184;2023-06-22T00:03:53;6.53;;;5.93;;
7398;SDS011;3740;50.700;7.184;2023-06-22T00:06:18;6.38;;;5.78;;
7398;SDS011;3740;50.700;7.184;2023-06-22T00:08:44;5.82;;;5.32;;
7398;SDS011;3740;50.700;7.184;2023-06-22T00:11:09;6.38;;;5.90;;
7398;SDS011;3740;50.700;7.184;2023-06-22T00:13:35;6.47;;;5.90;;
7398;SDS011;3740;50.700;7.184;2023-06-22T00:16:01;6.22;;;5.70;;
7398;SDS011;3740;50.700;7.184;2023-06-22T00:18:26;6.32;;;5.72;;
7398;SDS011;3740;50.700;7.184;2023-06-22T00:20:53;6.43;;;5.95;;
7398;SDS011;3740;50.700;7.184;2023-06-22T00:23:23;6.90;;;6.30;;
7398;SDS011;3740;50.700;7.184;2023-06-22T00:25:49;6.80;;;6.30;;
7398;SDS011;3740;50.700;7.184;2023-06-22T00:28:15;6.45;;;5.85;;
7398;SDS011;3740;50.700;7.184;2023-06-22T00:30:40;6.82;;;6.28;;
7398;SDS011;3740;50.700;7.184;2023-06-22T00:33:06;6.60;;;6.07;;
7398;SDS011;3740;50.700;7.184;2023-06-22T00:35:32;6.28;;;5.88;;
7398;SDS011;3740;50.700;7.184;2023-06-22T00:37:59;6.72;;;6.03;;
7398;SDS011;3740;50.700;7.184;2023-06-22T00:40:32;6.40;;;5.78;;
7398;SDS011;3740;50.700;7.184;2023-06-22T00:42:58;6.85;;;6.13;;
7398;SDS011;3740;50.700;7.184;2023-06-22T00:45:24;6.95;;;6.28;;
7398;SDS011;3740;50.700;7.184;2023-06-22T00:47:52;6.60;;;6.10;;
7398;SDS011;3740;50.700;7.184;2023-06-22T00:50:19;6.38;;;5.78;;
7398;SDS011;3740;50.700;7.184;2023-06-22T00:52:53;6.68;;;6.07;;
7398;SDS011;3740;50.700;7.184;2023-06-22T00:55:21;7.10;;;6.30;;
7398;SDS011;3740;50.700;7.184;2023-06-22T00:57:47;7.32;;;6.70;;
7398;SDS011;3740;50.700;7.184;2023-06-22T01:00:14;6.78;;;6.28;;
7398;SDS011;3740;50.700;7.184;2023-06-22T01:02:42;7.00;;;6.30;;
7398;SDS011;3740;50.700;7.184;2023-06-22T01:05:10;7.20;;;6.18;;
7398;SDS011;3740;50.700;7.184;2023-06-22T01:07:42;7.15;;;6.55;;
7398;SDS011;3740;50.700;7.184;2023-06-22T01:10:40;6.95;;;6.10;;
7398;SDS011;3740;50.700;7.184;2023-06-22T01:13:41;7.18;;;6.50;;
7398;SDS011;3740;50.700;7.184;2023-06-22T01:16:24;7.00;;;6.40;;
7398;SDS011;3740;50.700;7.184;2023-06-22T01:18:56;7.00;;;6.40;;
7398;SDS011;3740;50.700;7.184;2023-06-22T01:21:25;7.13;;;6.63;;
7398;SDS011;3740;50.700;7.184;2023-06-22T01:27:05;6.97;;;6.47;;
7398;SDS011;3740;50.700;7.184;2023-06-22T01:29:42;7.35;;;6.65;;
7398;SDS011;3740;50.700;7.184;2023-06-22T01:32:09;7.15;;;6.60;;
7398;SDS011;3740;50.700;7.184;2023-06-22T01:34:36;7.38;;;6.72;;
7398;SDS011;3740;50.700;7.184;2023-06-22T01:37:05;6.90;;;6.30;;
7398;SDS011;3740;50.700;7.184;2023-06-22T01:39:31;7.03;;;6.45;;
7398;SDS011;3740;50.700;7.184;2023-06-22T01:41:57;7.00;;;6.40;;
7398;SDS011;3740;50.700;7.184;2023-06-22T01:44:23;7.80;;;7.10;;
7398;SDS011;3740;50.700;7.184;2023-06-22T01:46:51;6.90;;;6.40;;
7398;SDS011;3740;50.700;7.184;2023-06-22T01:49:17;7.35;;;6.75;;
7398;SDS011;3740;50.700;7.184;2023-06-22T01:51:43;7.00;;;6.28;;
7398;SDS011;3740;50.700;7.184;2023-06-22T01:54:08;7.13;;;6.63;;
7398;SDS011;3740;50.700;7.184;2023-06-22T01:56:34;7.10;;;6.50;;
7398;SDS011;3740;50.700;7.184;2023-06-22T01:59:04;7.25;;;6.63;;
7398;SDS011;3740;50.700;7.184;2023-06-22T02:01:40;7.22;;;6.50;;
7398;SDS011;3740;50.700;7.184;2023-06-22T02:04:09;7.97;;;7.25;;
7398;SDS011;3740;50.700;7.184;2023-06-22T02:06:42;7.60;;;6.93;;
7398;SDS011;3740;50.700;7.184;2023-06-22T02:09:12;8.30;;;7.57;;
7398;SDS011;3740;50.700;7.184;2023-06-22T02:11:41;7.70;;;7.10;;
7398;SDS011;3740;50.700;7.184;2023-06-22T02:14:09;7.63;;;7.03;;
7398;SDS011;3740;50.700;7.184;2023-06-22T02:16:35;7.72;;;7.03;;
7398;SDS011;3740;50.700;7.184;2023-06-22T02:19:02;7.88;;;7.07;;
7398;SDS011;3740;50.700;7.184;2023-06-22T02:21:28;8.43;;;7.72;;
7398;SDS011;3740;50.700;7.184;2023-06-22T02:23:55;9.95;;;7.63;;
7398;SDS011;3740;50.700;7.184;2023-06-22T02:26:21;7.65;;;7.05;;
7398;SDS011;3740;50.700;7.184;2023-06-22T02:28:47;7.32;;;6.70;;
7398;SDS011;3740;50.700;7.184;2023-06-22T02:31:12;8.38;;;7.68;;
7398;SDS011;3740;50.700;7.184;2023-06-22T02:33:38;8.15;;;7.32;;
7398;SDS011;3740;50.700;7.184;2023-06-22T02:36:03;7.82;;;7.22;;
7398;SDS011;3740;50.700;7.184;2023-06-22T02:38:30;7.30;;;6.78;;
7398;SDS011;3740;50.700;7.184;2023-06-22T02:40:59;7.97;;;7.28;;
7398;SDS011;3740;50.700;7.184;2023-06-22T02:43:25;8.40;;;7.63;;
7398;SDS011;3740;50.700;7.184;2023-06-22T02:45:50;8.30;;;7.70;;
7398;SDS011;3740;50.700;7.184;2023-06-22T02:48:16;7.65;;;7.13;;
7398;SDS011;3740;50.700;7.184;2023-06-22T02:50:41;8.60;;;7.80;;
7398;SDS011;3740;50.700;7.184;2023-06-22T02:53:07;8.38;;;7.78;;
7398;SDS011;3740;50.700;7.184;2023-06-22T02:55:32;8.32;;;7.72;;
7398;SDS011;3740;50.700;7.184;2023-06-22T02:57:58;8.10;;;7.38;;
7398;SDS011;3740;50.700;7.184;2023-06-22T03:00:24;8.20;;;7.60;;
7398;SDS011;3740;50.700;7.184;2023-06-22T03:02:55;8.73;;;8.02;;
7398;SDS011;3740;50.700;7.184;2023-06-22T03:05:21;8.50;;;7.78;;
7398;SDS011;3740;50.700;7.184;2023-06-22T03:07:46;7.75;;;7.15;;
7398;SDS011;3740;50.700;7.184;2023-06-22T03:10:13;8.55;;;7.85;;
7398;SDS011;3740;50.700;7.184;2023-06-22T03:12:39;8.77;;;8.02;;
7398;SDS011;3740;50.700;7.184;2023-06-22T03:15:06;7.82;;;7.15;;
7398;SDS011;3740;50.700;7.184;2023-06-22T03:17:33;7.85;;;7.25;;
7398;SDS011;3740;50.700;7.184;2023-06-22T03:20:00;8.00;;;7.40;;
7398;SDS011;3740;50.700;7.184;2023-06-22T03:22:31;8.23;;;7.53;;
7398;SDS011;3740;50.700;7.184;2023-06-22T03:24:57;8.85;;;7.97;;
7398;SDS011;3740;50.700;7.184;2023-06-22T03:27:22;8.90;;;8.10;;
7398;SDS011;3740;50.700;7.184;2023-06-22T03:29:48;8.02;;;7.38;;
7398;SDS011;3740;50.700;7.184;2023-06-22T03:32:13;8.77;;;8.07;;
7398;SDS011;3740;50.700;7.184;2023-06-22T03:34:39;8.43;;;7.68;;
7398;SDS011;3740;50.700;7.184;2023-06-22T03:37:04;8.32;;;7.63;;
7398;SDS011;3740;50.700;7.184;2023-06-22T03:39:31;8.90;;;8.20;;
7398;SDS011;3740;50.700;7.184;2023-06-22T03:41:56;8.48;;;7.82;;
7398;SDS011;3740;50.700;7.184;2023-06-22T03:44:22;8.80;;;8.10;;
7398;SDS011;3740;50.700;7.184;2023-06-22T03:46:47;8.90;;;8.20;;
7398;SDS011;3740;50.700;7.184;2023-06-22T03:49:13;9.02;;;8.32;;
7398;SDS011;3740;50.700;7.184;2023-06-22T03:51:39;9.30;;;8.60;;
7398;SDS011;3740;50.700;7.184;2023-06-22T03:54:04;8.73;;;8.02;;
7398;SDS011;3740;50.700;7.184;2023-06-22T03:56:30;9.18;;;8.38;;
7398;SDS011;3740;50.700;7.184;2023-06-22T03:58:56;8.55;;;7.85;;
7398;SDS011;3740;50.700;7.184;2023-06-22T04:01:22;9.15;;;8.32;;
7398;SDS011;3740;50.700;7.184;2023-06-22T04:03:47;9.43;;;8.63;;
7398;SDS011;3740;50.700;7.184;2023-06-22T04:06:14;9.13;;;8.20;;
7398;SDS011;3740;50.700;7.184;2023-06-22T04:08:40;8.88;;;8.27;;
7398;SDS011;3740;50.700;7.184;2023-06-22T04:11:06;8.88;;;8.18;;
7398;SDS011;3740;50.700;7.184;2023-06-22T04:13:31;8.75;;;7.95;;
7398;SDS011;3740;50.700;7.184;2023-06-22T04:15:57;9.40;;;8.55;;
7398;SDS011;3740;50.700;7.184;2023-06-22T04:18:23;8.98;;;8.10;;
7398;SDS011;3740;50.700;7.184;2023-06-22T04:20:48;8.93;;;8.18;;
7398;SDS011;3740;50.700;7.184;2023-06-22T04:23:14;9.05;;;8.20;;
7398;SDS011;3740;50.700;7.184;2023-06-22T04:25:39;9.18;;;8.50;;
7398;SDS011;3740;50.700;7.184;2023-06-22T04:28:05;9.20;;;8.50;;
7398;SDS011;3740;50.700;7.184;2023-06-22T04:30:37;8.98;;;8.27;;
7398;SDS011;3740;50.700;7.184;2023-06-22T04:33:11;9.50;;;8.80;;
7398;SDS011;3740;50.700;7.184;2023-06-22T04:35:40;9.15;;;8.45;;
7398;SDS011;3740;50.700;7.184;2023-06-22T04:38:09;10.30;;;9.52;;
7398;SDS011;3740;50.700;7.184;2023-06-22T04:40:38;9.40;;;8.60;;
7398;SDS011;3740;50.700;7.184;2023-06-22T04:43:04;10.15;;;9.32;;
7398;SDS011;3740;50.700;7.184;2023-06-22T04:45:31;9.43;;;8.73;;
7398;SDS011;3740;50.700;7.184;2023-06-22T04:47:57;9.02;;;8.32;;
7398;SDS011;3740;50.700;7.184;2023-06-22T04:50:23;9.88;;;9.18;;
7398;SDS011;3740;50.700;7.184;2023-06-22T04:52:50;10.18;;;9.27;;
7398;SDS011;3740;50.700;7.184;2023-06-22T04:55:16;10.48;;;9.63;;
7398;SDS011;3740;50.700;7.184;2023-06-22T04:57:43;10.02;;;9.23;;
7398;SDS011;3740;50.700;7.184;2023-06-22T05:00:14;9.50;;;8.70;;
7398;SDS011;3740;50.700;7.184;2023-06-22T05:02:44;9.57;;;8.77;;
7398;SDS011;3740;50.700;7.184;2023-06-22T05:05:14;10.10;;;9.05;;
7398;SDS011;3740;50.700;7.184;2023-06-22T05:07:46;9.02;;;8.32;;
7398;SDS011;3740;50.700;7.184;2023-06-22T05:10:17;8.32;;;7.63;;
7398;SDS011;3740;50.700;7.184;2023-06-22T05:12:46;9.52;;;8.57;;
7398;SDS011;3740;50.700;7.184;2023-06-22T05:15:12;8.98;;;8.18;;
7398;SDS011;3740;50.700;7.184;2023-06-22T05:17:37;7.88;;;7.18;;
7398;SDS011;3740;50.700;7.184;2023-06-22T05:20:13;8.70;;;7.95;;
7398;SDS011;3740;50.700;7.184;2023-06-22T05:22:39;8.27;;;7.47;;
7398;SDS011;3740;50.700;7.184;2023-06-22T05:25:08;7.82;;;7.03;;
7398;SDS011;3740;50.700;7.184;2023-06-22T05:27:35;8.98;;;8.27;;
7398;SDS011;3740;50.700;7.184;2023-06-22T05:30:04;8.93;;;8.07;;
7398;SDS011;3740;50.700;7.184;2023-06-22T05:32:31;12.48;;;9.35;;
7398;SDS011;3740;50.700;7.184;2023-06-22T05:34:57;31.23;;;15.38;;
7398;SDS011;3740;50.700;7.184;2023-06-22T05:37:22;23.67;;;14.40;;
7398;SDS011;3740;50.700;7.184;2023-06-22T05:39:48;24.42;;;13.23;;
7398;SDS011;3740;50.700;7.184;2023-06-22T05:42:14;19.83;;;12.73;;
7398;SDS011;3740;50.700;7.184;2023-06-22T05:44:39;11.73;;;9.82;;
7398;SDS011;3740;50.700;7.184;2023-06-22T05:47:05;11.40;;;9.15;;
7398;SDS011;3740;50.700;7.184;2023-06-22T05:49:31;9.48;;;8.50;;
7398;SDS011;3740;50.700;7.184;2023-06-22T05:51:58;8.73;;;8.02;;
7398;SDS011;3740;50.700;7.184;2023-06-22T05:54:24;8.23;;;7.55;;
7398;SDS011;3740;50.700;7.184;2023-06-22T05:56:50;8.70;;;7.90;;
7398;SDS011;3740;50.700;7.184;2023-06-22T05:59:16;8.63;;;7.95;;
7398;SDS011;3740;50.700;7.184;2023-06-22T06:01:41;9.00;;;8.30;;
7398;SDS011;3740;50.700;7.184;2023-06-22T06:04:07;9.18;;;8.38;;
7398;SDS011;3740;50.700;7.184;2023-06-22T06:06:35;8.23;;;7.57;;
7398;SDS011;3740;50.700;7.184;2023-06-22T06:09:05;9.00;;;8.20;;
7398;SDS011;3740;50.700;7.184;2023-06-22T06:11:32;8.43;;;7.82;;
7398;SDS011;3740;50.700;7.184;2023-06-22T06:13:58;9.27;;;8.45;;
7398;SDS011;3740;50.700;7.184;2023-06-22T06:16:24;8.32;;;7.72;;
7398;SDS011;3740;50.700;7.184;2023-06-22T06:18:49;8.75;;;7.95;;
7398;SDS011;3740;50.700;7.184;2023-06-22T06:21:15;9.00;;;8.25;;
7398;SDS011;3740;50.700;7.184;2023-06-22T06:23:41;8.65;;;8.00;;
7398;SDS011;3740;50.700;7.184;2023-06-22T06:26:07;8.18;;;7.35;;
7398;SDS011;3740;50.700;7.184;2023-06-22T06:28:34;8.15;;;7.45;;
7398;SDS011;3740;50.700;7.184;2023-06-22T06:31:00;8.95;;;8.25;;
7398;SDS011;3740;50.700;7.184;2023-06-22T06:33:25;9.93;;;9.13;;
7398;SDS011;3740;50.700;7.184;2023-06-22T06:35:51;8.23;;;7.63;;
7398;SDS011;3740;50.700;7.184;2023-06-22T06:38:17;9.10;;;8.40;;
7398;SDS011;3740;50.700;7.184;2023-06-22T06:40:42;8.35;;;7.65;;
7398;SDS011;3740;50.700;7.184;2023-06-22T06:43:09;8.27;;;7.57;;
7398;SDS011;3740;50.700;7.184;2023-06-22T06:45:34;9.00;;;8.30;;
7398;SDS011;3740;50.700;7.184;2023-06-22T06:48:00;8.25;;;7.55;;
7398;SDS011;3740;50.700;7.184;2023-06-22T06:50:26;8.07;;;7.45;;
7398;SDS011;3740;50.700;7.184;2023-06-22T06:52:51;8.75;;;8.05;;
7398;SDS011;3740;50.700;7.184;2023-06-22T06:55:17;9.00;;;8.20;;
7398;SDS011;3740;50.700;7.184;2023-06-22T06:57:44;9.18;;;8.27;;
7398;SDS011;3740;50.700;7.184;2023-06-22T07:00:13;9.73;;;8.93;;
7398;SDS011;3740;50.700;7.184;2023-06-22T07:02:40;9.57;;;8.70;;
7398;SDS011;3740;50.700;7.184;2023-06-22T07:05:07;8.27;;;7.57;;
7398;SDS011;3740;50.700;7.184;2023-06-22T07:07:33;10.27;;;9.38;;
7398;SDS011;3740;50.700;7.184;2023-06-22T07:09:59;8.98;;;8.27;;
7398;SDS011;3740;50.700;7.184;2023-06-22T07:12:25;8.55;;;7.85;;
7398;SDS011;3740;50.700;7.184;2023-06-22T07:14:51;9.57;;;8.68;;
7398;SDS011;3740;50.700;7.184;2023-06-22T07:17:17;8.68;;;7.97;;
7398;SDS011;3740;50.700;7.184;2023-06-22T07:19:43;10.70;;;9.70;;
7398;SDS011;3740;50.700;7.184;2023-06-22T07:22:09;9.10;;;8.30;;
7398;SDS011;3740;50.700;7.184;2023-06-22T07:24:34;8.77;;;8.05;;
7398;SDS011;3740;50.700;7.184;2023-06-22T07:27:00;8.27;;;7.68;;
7398;SDS011;3740;50.700;7.184;2023-06-22T07:29:27;9.50;;;8.70;;
7398;SDS011;3740;50.700;7.184;2023-06-22T07:31:52;9.25;;;8.52;;
7398;SDS011;3740;50.700;7.184;2023-06-22T07:34:18;8.85;;;8.15;;
7398;SDS011;3740;50.700;7.184;2023-06-22T07:36:44;8.82;;;8.02;;
7398;SDS011;3740;50.700;7.184;2023-06-22T07:39:11;9.68;;;8.90;;
7398;SDS011;3740;50.700;7.184;2023-06-22T07:41:38;9.05;;;8.25;;
7398;SDS011;3740;50.700;7.184;2023-06-22T07:44:06;10.00;;;9.10;;
7398;SDS011;3740;50.700;7.184;2023-06-22T07:46:32;8.95;;;8.25;;
7398;SDS011;3740;50.700;7.184;2023-06-22T07:48:58;8.90;;;8.15;;
7398;SDS011;3740;50.700;7.184;2023-06-22T07:51:24;9.73;;;8.85;;
7398;SDS011;3740;50.700;7.184;2023-06-22T07:53:50;8.77;;;8.13;;
7398;SDS011;3740;50.700;7.184;2023-06-22T07:56:16;8.63;;;8.00;;
7398;SDS011;3740;50.700;7.184;2023-06-22T07:58:45;8.43;;;7.82;;
7398;SDS011;3740;50.700;7.184;2023-06-22T08:01:11;10.45;;;9.45;;
7398;SDS011;3740;50.700;7.184;2023-06-22T08:03:37;10.07;;;9.27;;
7398;SDS011;3740;50.700;7.184;2023-06-22T08:06:04;9.57;;;8.77;;
7398;SDS011;3740;50.700;7.184;2023-06-22T08:08:31;9.40;;;8.60;;
7398;SDS011;3740;50.700;7.184;2023-06-22T08:10:56;10.13;;;9.32;;
7398;SDS011;3740;50.700;7.184;2023-06-22T08:13:22;9.82;;;9.10;;
7398;SDS011;3740;50.700;7.184;2023-06-22T08:15:48;10.15;;;9.25;;
7398;SDS011;3740;50.700;7.184;2023-06-22T08:18:14;9.63;;;8.88;;
7398;SDS011;3740;50.700;7.184;2023-06-22T08:20:39;9.50;;;8.70;;
7398;SDS011;3740;50.700;7.184;2023-06-22T08:23:05;8.48;;;7.85;;
7398;SDS011;3740;50.700;7.184;2023-06-22T08:25:34;9.02;;;8.35;;
7398;SDS011;3740;50.700;7.184;2023-06-22T08:28:00;9.05;;;8.25;;
7398;SDS011;3740;50.700;7.184;2023-06-22T08:30:26;9.48;;;8.77;;
7398;SDS011;3740;50.700;7.184;2023-06-22T08:32:52;9.25;;;8.55;;
7398;SDS011;3740;50.700;7.184;2023-06-22T08:35:19;10.35;;;9.52;;
7398;SDS011;3740;50.700;7.184;2023-06-22T08:37:45;9.38;;;8.70;;
7398;SDS011;3740;50.700;7.184;2023-06-22T08:40:16;9.43;;;8.75;;
7398;SDS011;3740;50.700;7.184;2023-06-22T08:42:42;10.35;;;9.55;;
7398;SDS011;3740;50.700;7.184;2023-06-22T08:45:08;9.23;;;8.52;;
7398;SDS011;3740;50.700;7.184;2023-06-22T08:47:34;9.02;;;8.32;;
7398;SDS011;3740;50.700;7.184;2023-06-22T08:50:00;9.48;;;8.68;;
7398;SDS011;3740;50.700;7.184;2023-06-22T08:52:28;9.20;;;8.55;;
7398;SDS011;3740;50.700;7.184;2023-06-22T08:54:53;8.57;;;7.97;;
7398;SDS011;3740;50.700;7.184;2023-06-22T08:57:20;9.48;;;8.60;;
7398;SDS011;3740;50.700;7.184;2023-06-22T08:59:46;8.63;;;8.02;;
7398;SDS011;3740;50.700;7.184;2023-06-22T09:02:11;9.70;;;9.00;;
7398;SDS011;3740;50.700;7.184;2023-06-22T09:04:37;9.02;;;8.43;;
7398;SDS011;3740;50.700;7.184;2023-06-22T09:07:03;9.77;;;9.07;;
7398;SDS011;3740;50.700;7.184;2023-06-22T09:09:29;8.52;;;7.75;;
7398;SDS011;3740;50.700;7.184;2023-06-22T09:11:54;8.88;;;8.20;;
7398;SDS011;3740;50.700;7.184;2023-06-22T09:14:20;8.38;;;7.68;;
7398;SDS011;3740;50.700;7.184;2023-06-22T09:16:45;10.35;;;9.55;;
7398;SDS011;3740;50.700;7.184;2023-06-22T09:19:11;8.63;;;7.95;;
7398;SDS011;3740;50.700;7.184;2023-06-22T09:21:37;8.80;;;8.10;;
7398;SDS011;3740;50.700;7.184;2023-06-22T09:24:02;8.82;;;8.18;;
7398;SDS011;3740;50.700;7.184;2023-06-22T09:26:28;8.98;;;8.27;;
7398;SDS011;3740;50.700;7.184;2023-06-22T09:28:54;8.02;;;7.50;;
7398;SDS011;3740;50.700;7.184;2023-06-22T09:31:19;9.35;;;8.55;;
7398;SDS011;3740;50.700;7.184;2023-06-22T09:33:51;9.10;;;8.40;;
7398;SDS011;3740;50.700;7.184;2023-06-22T09:36:20;9.25;;;8.45;;
7398;SDS011;3740;50.700;7.184;2023-06-22T09:38:47;9.32;;;8.57;;
7398;SDS011;3740;50.700;7.184;2023-06-22T09:41:13;8.48;;;7.78;;
7398;SDS011;3740;50.700;7.184;2023-06-22T09:43:39;8.95;;;8.23;;
7398;SDS011;3740;50.700;7.184;2023-06-22T09:46:05;8.45;;;7.75;;
7398;SDS011;3740;50.700;7.184;2023-06-22T09:48:32;8.57;;;7.97;;
7398;SDS011;3740;50.700;7.184;2023-06-22T09:50:57;9.18;;;8.48;;
7398;SDS011;3740;50.700;7.184;2023-06-22T09:53:23;9.10;;;8.38;;
7398;SDS011;3740;50.700;7.184;2023-06-22T09:55:48;9.45;;;8.48;;
7398;SDS011;3740;50.700;7.184;2023-06-22T09:58:14;8.80;;;8.10;;
7398;SDS011;3740;50.700;7.184;2023-06-22T10:00:39;8.25;;;7.65;;
7398;SDS011;3740;50.700;7.184;2023-06-22T10:03:06;9.00;;;8.30;;
7398;SDS011;3740;50.700;7.184;2023-06-22T10:05:32;9.10;;;8.40;;
7398;SDS011;3740;50.700;7.184;2023-06-22T10:07:57;8.88;;;8.27;;
7398;SDS011;3740;50.700;7.184;2023-06-22T10:10:23;9.35;;;8.55;;
7398;SDS011;3740;50.700;7.184;2023-06-22T10:12:54;9.15;;;8.52;;
7398;SDS011;3740;50.700;7.184;2023-06-22T10:15:21;9.82;;;9.13;;
7398;SDS011;3740;50.700;7.184;2023-06-22T10:17:47;9.68;;;8.98;;
7398;SDS011;3740;50.700;7.184;2023-06-22T10:20:13;9.35;;;8.73;;
7398;SDS011;3740;50.700;7.184;2023-06-22T10:22:39;9.98;;;9.18;;
7398;SDS011;3740;50.700;7.184;2023-06-22T10:25:05;9.00;;;8.40;;
7398;SDS011;3740;50.700;7.184;2023-06-22T10:27:32;9.50;;;8.77;;
7398;SDS011;3740;50.700;7.184;2023-06-22T10:29:57;9.63;;;8.82;;
7398;SDS011;3740;50.700;7.184;2023-06-22T10:32:23;9.57;;;8.77;;
7398;SDS011;3740;50.700;7.184;2023-06-22T10:34:48;10.05;;;9.35;;
7398;SDS011;3740;50.700;7.184;2023-06-22T10:37:14;10.13;;;9.35;;
7398;SDS011;3740;50.700;7.184;2023-06-22T10:39:39;11.18;;;10.27;;
7398;SDS011;3740;50.700;7.184;2023-06-22T10:42:05;10.95;;;9.90;;
7398;SDS011;3740;50.700;7.184;2023-06-22T10:44:31;11.05;;;10.25;;
7398;SDS011;3740;50.700;7.184;2023-06-22T10:46:56;11.70;;;10.70;;
7398;SDS011;3740;50.700;7.184;2023-06-22T10:49:22;11.68;;;10.68;;
7398;SDS011;3740;50.700;7.184;2023-06-22T10:51:47;14.02;;;12.48;;
7398;SDS011;3740;50.700;7.184;2023-06-22T10:54:13;13.80;;;12.38;;
7398;SDS011;3740;50.700;7.184;2023-06-22T10:56:39;16.80;;;15.05;;
7398;SDS011;3740;50.700;7.184;2023-06-22T10:59:05;16.60;;;15.10;;
7398;SDS011;3740;50.700;7.184;2023-06-22T11:01:30;16.85;;;15.13;;
7398;SDS011;3740;50.700;7.184;2023-06-22T11:03:58;27.27;;;19.38;;
7398;SDS011;3740;50.700;7.184;2023-06-22T11:06:23;25.42;;;19.10;;
7398;SDS011;3740;50.700;7.184;2023-06-22T11:08:49;18.98;;;17.13;;
7398;SDS011;3740;50.700;7.184;2023-06-22T11:11:15;17.83;;;16.42;;
7398;SDS011;3740;50.700;7.184;2023-06-22T11:13:42;17.90;;;16.50;;
7398;SDS011;3740;50.700;7.184;2023-06-22T11:16:08;18.95;;;17.45;;
7398;SDS011;3740;50.700;7.184;2023-06-22T11:18:35;19.42;;;17.92;;
7398;SDS011;3740;50.700;7.184;2023-06-22T11:21:00;19.90;;;18.33;;
7398;SDS011;3740;50.700;7.184;2023-06-22T11:23:26;18.65;;;17.15;;
7398;SDS011;3740;50.700;7.184;2023-06-22T11:25:53;19.38;;;17.90;;
7398;SDS011;3740;50.700;7.184;2023-06-22T11:28:19;18.92;;;17.45;;
7398;SDS011;3740;50.700;7.184;2023-06-22T11:30:45;18.02;;;16.73;;
7398;SDS011;3740;50.700;7.184;2023-06-22T11:33:10;18.23;;;16.88;;
7398;SDS011;3740;50.700;7.184;2023-06-22T11:35:36;17.90;;;16.60;;
7398;SDS011;3740;50.700;7.184;2023-06-22T11:38:02;17.77;;;16.35;;
7398;SDS011;3740;50.700;7.184;2023-06-22T11:40:29;17.02;;;15.82;;
7398;SDS011;3740;50.700;7.184;2023-06-22T11:42:54;15.57;;;14.48;;
7398;SDS011;3740;50.700;7.184;2023-06-22T11:45:20;14.80;;;13.70;;
7398;SDS011;3740;50.700;7.184;2023-06-22T11:47:46;14.70;;;13.57;;
7398;SDS011;3740;50.700;7.184;2023-06-22T11:50:11;13.30;;;12.32;;
7398;SDS011;3740;50.700;7.184;2023-06-22T11:52:37;12.85;;;11.95;;
7398;SDS011;3740;50.700;7.184;2023-06-22T11:55:03;15.00;;;13.90;;
7398;SDS011;3740;50.700;7.184;2023-06-22T11:57:30;13.45;;;12.35;;
7398;SDS011;3740;50.700;7.184;2023-06-22T11:59:58;15.02;;;13.93;;
7398;SDS011;3740;50.700;7.184;2023-06-22T12:02:23;11.90;;;11.00;;
7398;SDS011;3740;50.700;7.184;2023-06-22T12:04:49;11.48;;;10.65;;
7398;SDS011;3740;50.700;7.184;2023-06-22T12:07:17;13.95;;;12.95;;
7398;SDS011;3740;50.700;7.184;2023-06-22T12:09:43;14.25;;;13.05;;
7398;SDS011;3740;50.700;7.184;2023-06-22T12:12:09;13.50;;;12.40;;
7398;SDS011;3740;50.700;7.184;2023-06-22T12:14:34;13.00;;;12.00;;
7398;SDS011;3740;50.700;7.184;2023-06-22T12:17:00;14.32;;;13.10;;
7398;SDS011;3740;50.700;7.184;2023-06-22T12:19:26;12.95;;;12.05;;
7398;SDS011;3740;50.700;7.184;2023-06-22T12:21:51;12.65;;;11.65;;
7398;SDS011;3740;50.700;7.184;2023-06-22T12:24:17;12.10;;;11.20;;
7398;SDS011;3740;50.700;7.184;2023-06-22T12:26:42;11.80;;;10.90;;
7398;SDS011;3740;50.700;7.184;2023-06-22T12:29:08;11.20;;;10.30;;
7398;SDS011;3740;50.700;7.184;2023-06-22T12:31:35;9.60;;;8.90;;
7398;SDS011;3740;50.700;7.184;2023-06-22T12:34:01;8.65;;;8.05;;
7398;SDS011;3740;50.700;7.184;2023-06-22T12:36:27;8.45;;;7.75;;
7398;SDS011;3740;50.700;7.184;2023-06-22T12:38:52;7.18;;;6.68;;
7398;SDS011;3740;50.700;7.184;2023-06-22T12:41:19;7.20;;;6.70;;
7398;SDS011;3740;50.700;7.184;2023-06-22T12:43:44;7.50;;;6.88;;
7398;SDS011;3740;50.700;7.184;2023-06-22T12:46:10;7.72;;;7.15;;
7398;SDS011;3740;50.700;7.184;2023-06-22T12:48:35;8.60;;;8.00;;
7398;SDS011;3740;50.700;7.184;2023-06-22T12:51:06;7.90;;;7.30;;
7398;SDS011;3740;50.700;7.184;2023-06-22T12:53:33;8.73;;;8.02;;
7398;SDS011;3740;50.700;7.184;2023-06-22T12:55:58;7.70;;;7.10;;
7398;SDS011;3740;50.700;7.184;2023-06-22T12:58:24;9.38;;;8.65;;
7398;SDS011;3740;50.700;7.184;2023-06-22T13:00:49;8.43;;;7.78;;
7398;SDS011;3740;50.700;7.184;2023-06-22T13:03:15;8.50;;;7.90;;
7398;SDS011;3740;50.700;7.184;2023-06-22T13:05:40;8.60;;;8.00;;
7398;SDS011;3740;50.700;7.184;2023-06-22T13:08:06;8.07;;;7.50;;
7398;SDS011;3740;50.700;7.184;2023-06-22T13:10:33;8.20;;;7.60;;
7398;SDS011;3740;50.700;7.184;2023-06-22T13:12:58;8.10;;;7.50;;
7398;SDS011;3740;50.700;7.184;2023-06-22T13:15:26;8.15;;;7.45;;
7398;SDS011;3740;50.700;7.184;2023-06-22T13:17:53;7.82;;;7.22;;
7398;SDS011;3740;50.700;7.184;2023-06-22T13:20:19;7.78;;;7.18;;
7398;SDS011;3740;50.700;7.184;2023-06-22T13:22:44;7.78;;;7.18;;
7398;SDS011;3740;50.700;7.184;2023-06-22T13:25:10;7.18;;;6.68;;
7398;SDS011;3740;50.700;7.184;2023-06-22T13:27:40;6.70;;;6.20;;
7398;SDS011;3740;50.700;7.184;2023-06-22T13:30:06;7.40;;;6.80;;
7398;SDS011;3740;50.700;7.184;2023-06-22T13:32:33;6.82;;;6.32;;
7398;SDS011;3740;50.700;7.184;2023-06-22T13:34:58;6.75;;;6.35;;
7398;SDS011;3740;50.700;7.184;2023-06-22T13:37:25;6.50;;;6.10;;
7398;SDS011;3740;50.700;7.184;2023-06-22T13:39:50;6.95;;;6.45;;
7398;SDS011;3740;50.700;7.184;2023-06-22T13:42:16;6.82;;;6.22;;
7398;SDS011;3740;50.700;7.184;2023-06-22T13:44:42;6.10;;;5.63;;
7398;SDS011;3740;50.700;7.184;2023-06-22T13:47:07;6.00;;;5.50;;
7398;SDS011;3740;50.700;7.184;2023-06-22T13:49:33;6.00;;;5.60;;
7398;SDS011;3740;50.700;7.184;2023-06-22T13:51:59;5.68;;;5.28;;
7398;SDS011;3740;50.700;7.184;2023-06-22T13:54:24;6.15;;;5.45;;
7398;SDS011;3740;50.700;7.184;2023-06-22T13:56:50;5.20;;;4.75;;
7398;SDS011;3740;50.700;7.184;2023-06-22T13:59:15;5.85;;;5.35;;
7398;SDS011;3740;50.700;7.184;2023-06-22T14:01:41;5.45;;;4.95;;
7398;SDS011;3740;50.700;7.184;2023-06-22T14:04:08;5.70;;;5.30;;
7398;SDS011;3740;50.700;7.184;2023-06-22T14:06:34;5.88;;;5.47;;
7398;SDS011;3740;50.700;7.184;2023-06-22T14:08:59;6.35;;;5.88;;
7398;SDS011;3740;50.700;7.184;2023-06-22T14:11:25;6.05;;;5.55;;
7398;SDS011;3740;50.700;7.184;2023-06-22T14:13:51;6.22;;;5.68;;
7398;SDS011;3740;50.700;7.184;2023-06-22T14:16:17;5.72;;;5.28;;
7398;SDS011;3740;50.700;7.184;2023-06-22T14:18:42;6.22;;;5.70;;
7398;SDS011;3740;50.700;7.184;2023-06-22T14:21:08;6.13;;;5.63;;
7398;SDS011;3740;50.700;7.184;2023-06-22T14:23:33;6.28;;;5.80;;
7398;SDS011;3740;50.700;7.184;2023-06-22T14:25:59;6.47;;;6.05;;
7398;SDS011;3740;50.700;7.184;2023-06-22T14:28:24;7.05;;;6.45;;
7398;SDS011;3740;50.700;7.184;2023-06-22T14:30:50;7.18;;;6.60;;
7398;SDS011;3740;50.700;7.184;2023-06-22T14:33:15;13.05;;;8.73;;
7398;SDS011;3740;50.700;7.184;2023-06-22T14:35:41;24.60;;;8.90;;
7398;SDS011;3740;50.700;7.184;2023-06-22T14:38:07;15.20;;;8.43;;
7398;SDS011;3740;50.700;7.184;2023-06-22T14:40:32;12.38;;;8.43;;
7398;SDS011;3740;50.700;7.184;2023-06-22T14:42:58;9.55;;;7.97;;
7398;SDS011;3740;50.700;7.184;2023-06-22T14:45:23;9.10;;;8.30;;
7398;SDS011;3740;50.700;7.184;2023-06-22T14:47:49;8.68;;;7.95;;
7398;SDS011;3740;50.700;7.184;2023-06-22T14:50:16;8.80;;;8.10;;
7398;SDS011;3740;50.700;7.184;2023-06-22T14:52:42;9.10;;;8.30;;
7398;SDS011;3740;50.700;7.184;2023-06-22T14:55:07;9.27;;;8.43;;
7398;SDS011;3740;50.700;7.184;2023-06-22T14:57:33;9.52;;;8.55;;
7398;SDS011;3740;50.700;7.184;2023-06-22T14:59:59;11.77;;;10.57;;
7398;SDS011;3740;50.700;7.184;2023-06-22T15:02:26;25.23;;;13.02;;
7398;SDS011;3740;50.700;7.184;2023-06-22T15:04:52;16.92;;;12.57;;
7398;SDS011;3740;50.700;7.184;2023-06-22T15:07:18;17.33;;;11.38;;
7398;SDS011;3740;50.700;7.184;2023-06-22T15:09:44;12.48;;;11.32;;